Time;durP1;ratioP1;P1;durP2;ratioP2;P2;SDS_P1;SDS_P2;PMS_P1;PMS_P2;Temp;Humidity;BMP_temperature;BMP_pressure;BME280_temperature;BME280_humidity;BME280_pressure;Samples;Min_cycle;Max_cycle;Signal;HPM_P1;HPM_P2
2022/11/28 00:01:29;;;;;;;7.70;5.97;;;6.50;99.90;;;;;;5056691;28;20465;-61
2022/11/28 00:03:56;;;;;;;7.50;6.70;;;6.40;99.90;;;;;;5055381;28;20791;-63
2022/11/28 00:06:26;;;;;;;10.30;6.43;;;6.50;99.90;;;;;;5071787;28;20523;-64
2022/11/28 00:08:57;;;;;;;8.00;6.10;;;6.40;99.90;;;;;;5073826;28;20874;-64
2022/11/28 00:11:25;;;;;;;7.87;6.30;;;6.40;99.90;;;;;;5056470;28;20839;-65
2022/11/28 00:13:52;;;;;;;8.77;6.80;;;6.30;1.00;;;;;;5055963;28;20561;-64
2022/11/28 00:16:21;;;;;;;13.60;7.43;;;6.30;1.00;;;;;;5055877;28;20462;-65
2022/11/28 00:18:49;;;;;;;8.27;7.00;;;6.30;1.00;;;;;;5058439;28;20462;-66
2022/11/28 00:21:16;;;;;;;10.97;6.90;;;6.30;1.00;;;;;;5077270;28;20457;-65
2022/11/28 00:23:46;;;;;;;8.57;6.80;;;6.30;1.00;;;;;;5080092;28;20471;-62
2022/11/28 00:26:16;;;;;;;9.03;6.57;;;6.40;1.00;;;;;;5079810;28;20461;-65
2022/11/28 00:28:44;;;;;;;8.50;6.67;;;6.40;1.00;;;;;;5078981;28;20461;-65
2022/11/28 00:31:14;;;;;;;8.90;6.63;;;6.40;1.00;;;;;;5073869;28;20475;-65
2022/11/28 00:33:44;;;;;;;8.90;7.00;;;6.30;1.00;;;;;;5080981;28;20461;-65
2022/11/28 00:36:12;;;;;;;14.80;6.53;;;6.30;1.00;;;;;;5074208;28;20469;-65
2022/11/28 00:38:40;;;;;;;12.23;7.90;;;6.40;1.00;;;;;;5079827;28;20468;-64
2022/11/28 00:41:12;;;;;;;7.70;6.90;;;6.40;1.00;;;;;;5076451;28;20728;-64
2022/11/28 00:43:42;;;;;;;8.60;7.20;;;6.30;1.00;;;;;;5061516;28;20437;-64
2022/11/28 00:46:10;;;;;;;8.17;6.47;;;6.30;1.00;;;;;;5060207;28;20437;-63
2022/11/28 00:48:38;;;;;;;8.57;7.43;;;6.30;37.00;;;;;;5059814;28;20771;-64
2022/11/28 00:51:07;;;;;;;9.60;6.60;;;6.30;99.90;;;;;;5060080;28;20863;-64
2022/11/28 00:53:35;;;;;;;6.90;6.07;;;6.40;34.60;;;;;;5077824;28;20461;-64
2022/11/28 00:56:05;;;;;;;8.20;6.47;;;6.30;99.90;;;;;;5060059;28;20515;-64
2022/11/28 00:58:48;;;;;;;10.60;7.60;;;6.30;99.90;;;;;;5059797;28;20462;-64
2022/11/28 01:01:20;;;;;;;8.70;7.00;;;6.30;99.90;;;;;;5060138;28;20797;-65
2022/11/28 01:03:49;;;;;;;9.10;6.40;;;6.30;99.90;;;;;;5075768;28;20805;-65
2022/11/28 01:06:25;;;;;;;7.87;6.60;;;6.30;1.00;;;;;;5079778;28;20453;-64
2022/11/28 01:08:52;;;;;;;9.20;6.60;;;6.30;1.00;;;;;;5079721;28;20457;-64
2022/11/28 01:11:21;;;;;;;9.47;7.23;;;6.30;99.90;;;;;;5079535;28;20556;-63
2022/11/28 01:13:49;;;;;;;9.03;7.10;;;6.30;99.90;;;;;;5064680;28;20760;-64
2022/11/28 01:16:18;;;;;;;9.73;7.50;;;6.30;99.90;;;;;;5060935;28;20454;-65
2022/11/28 01:18:51;;;;;;;7.50;6.50;;;6.30;1.00;;;;;;5058428;28;20465;-65
2022/11/28 01:21:21;;;;;;;12.97;7.90;;;6.30;99.90;;;;;;5059431;28;20458;-65
2022/11/28 01:23:49;;;;;;;12.13;7.93;;;6.30;1.00;;;;;;5069443;28;20895;-65
2022/11/28 01:26:19;;;;;;;9.40;7.73;;;6.30;99.90;;;;;;5078997;28;20526;-65
2022/11/28 01:28:46;;;;;;;9.07;8.17;;;6.30;83.50;;;;;;5076631;28;20463;-65
2022/11/28 01:31:20;;;;;;;9.70;7.40;;;6.20;1.00;;;;;;5079039;28;20468;-65
2022/11/28 01:33:48;;;;;;;9.33;7.50;;;6.20;1.00;;;;;;5072299;28;20804;-65
2022/11/28 01:36:16;;;;;;;8.57;7.10;;;6.10;1.00;;;;;;5059643;28;20469;-67
2022/11/28 01:38:43;;;;;;;9.57;7.57;;;6.10;1.00;;;;;;5059995;28;20919;-65
2022/11/28 01:41:12;;;;;;;10.70;7.70;;;6.20;95.80;;;;;;5058552;28;20796;-66
2022/11/28 01:43:57;;;;;;;11.70;8.67;;;6.10;99.90;;;;;;5060280;28;20847;-65
2022/11/28 01:46:26;;;;;;;10.53;7.30;;;6.10;1.00;;;;;;5078597;28;20969;-65
2022/11/28 01:48:55;;;;;;;8.40;7.50;;;6.10;1.00;;;;;;5077484;28;20871;-65
2022/11/28 01:51:22;;;;;;;9.77;7.67;;;6.10;99.90;;;;;;5079126;28;20961;-66
2022/11/28 01:53:52;;;;;;;9.73;8.40;;;6.10;1.00;;;;;;5078494;28;20468;-65
2022/11/28 01:56:23;;;;;;;8.77;7.20;;;6.10;1.00;;;;;;5058506;28;20849;-66
2022/11/28 01:58:56;;;;;;;9.47;8.47;;;6.10;1.00;;;;;;5059773;28;20458;-64
2022/11/28 02:01:27;;;;;;;14.10;8.30;;;6.10;99.90;;;;;;5058389;28;20475;-66
2022/11/28 02:03:55;;;;;;;9.70;8.20;;;6.10;99.90;;;;;;5058372;28;20469;-67
2022/11/28 02:06:25;;;;;;;10.73;7.93;;;6.10;42.50;;;;;;5074252;28;20485;-67
2022/11/28 02:08:55;;;;;;;10.33;7.80;;;6.10;99.90;;;;;;5076704;28;20574;-64
2022/11/28 02:11:52;;;;;;;10.13;8.53;;;6.10;5.50;;;;;;5078224;28;20461;-65
2022/11/28 02:14:29;;;;;;;10.00;8.60;;;6.00;99.90;;;;;;5077931;28;20436;-66
2022/11/28 02:17:09;;;;;;;9.67;7.60;;;6.00;99.90;;;;;;5060491;28;20472;-66
2022/11/28 02:20:33;;;;;;;12.50;8.27;;;6.00;1.00;;;;;;5057741;28;20772;-68
2022/11/28 02:23:06;;;;;;;8.90;7.23;;;6.00;1.00;;;;;;4996620;28;20849;-66
2022/11/28 02:26:02;;;;;;;11.30;8.53;;;6.00;1.00;;;;;;4998374;28;20507;-66
2022/11/28 02:29:07;;;;;;;10.70;7.87;;;6.00;1.00;;;;;;5063821;28;20444;-68
2022/11/28 02:32:07;;;;;;;9.73;7.80;;;6.00;1.00;;;;;;5063919;28;20440;-67
2022/11/28 02:34:44;;;;;;;10.53;7.90;;;6.00;99.90;;;;;;5062498;28;20455;-70
2022/11/28 02:37:17;;;;;;;11.67;8.23;;;5.90;99.90;;;;;;5067724;28;20498;-70
2022/11/28 02:39:52;;;;;;;8.60;6.90;;;6.00;99.90;;;;;;5058817;28;20494;-68
2022/11/28 02:42:22;;;;;;;9.80;7.53;;;6.00;99.90;;;;;;5075825;28;20522;-67
2022/11/28 02:44:55;;;;;;;12.00;8.50;;;6.00;19.30;;;;;;5076004;28;20461;-71
2022/11/28 02:47:27;;;;;;;8.77;7.33;;;5.90;1.00;;;;;;5077664;28;20495;-69
2022/11/28 02:50:05;;;;;;;8.97;7.90;;;6.00;1.00;;;;;;5077825;28;20461;-67
2022/11/28 02:52:36;;;;;;;8.67;7.70;;;6.00;99.90;;;;;;5061174;28;20469;-67
2022/11/28 02:55:05;;;;;;;9.43;7.90;;;6.00;1.00;;;;;;5058809;28;20520;-68
2022/11/28 02:57:38;;;;;;;14.20;8.70;;;6.00;99.90;;;;;;5057451;28;20513;-69
2022/11/28 03:00:27;;;;;;;9.93;8.33;;;6.00;1.00;;;;;;5057669;28;20490;-65
2022/11/28 03:03:05;;;;;;;10.20;7.93;;;6.00;1.00;;;;;;5073124;28;20478;-67
2022/11/28 03:05:42;;;;;;;9.50;8.40;;;6.00;1.00;;;;;;5077582;28;20457;-66
2022/11/28 03:08:21;;;;;;;10.30;8.57;;;6.00;1.00;;;;;;5077615;28;20905;-67
2022/11/28 03:10:53;;;;;;;10.10;7.87;;;6.00;1.00;;;;;;5077648;28;20453;-67
2022/11/28 03:13:26;;;;;;;11.30;8.83;;;6.00;99.90;;;;;;5060067;28;20532;-67
2022/11/28 03:16:07;;;;;;;11.30;10.20;;;6.00;1.00;;;;;;5077206;28;20824;-64
2022/11/28 03:18:39;;;;;;;10.93;7.67;;;6.00;27.20;;;;;;5077235;28;20457;-67
2022/11/28 03:21:16;;;;;;;8.90;7.70;;;6.00;1.00;;;;;;5077387;28;20495;-66
2022/11/28 03:23:51;;;;;;;8.50;7.60;;;6.00;1.00;;;;;;5060844;28;20444;-65
2022/11/28 03:26:26;;;;;;;9.10;8.10;;;6.00;1.00;;;;;;5058497;28;20475;-66
2022/11/28 03:29:02;;;;;;;14.23;9.37;;;6.00;99.90;;;;;;5056855;28;20466;-64
2022/11/28 03:31:35;;;;;;;10.30;8.03;;;6.00;99.90;;;;;;5073974;28;20428;-65
2022/11/28 03:34:06;;;;;;;9.40;8.50;;;6.00;99.90;;;;;;5074609;28;20755;-65
2022/11/28 03:36:43;;;;;;;10.23;8.10;;;6.00;99.90;;;;;;5074938;28;20436;-65
2022/11/28 03:39:16;;;;;;;10.10;8.10;;;6.00;99.90;;;;;;5077284;28;20529;-65
2022/11/28 03:41:48;;;;;;;9.10;7.13;;;6.00;99.90;;;;;;5077124;28;20468;-65
2022/11/28 03:44:25;;;;;;;8.70;7.77;;;6.00;99.90;;;;;;5063332;28;20851;-65
2022/11/28 03:46:57;;;;;;;11.13;7.90;;;6.00;9.60;;;;;;5056566;28;20556;-66
2022/11/28 03:49:30;;;;;;;9.47;8.23;;;6.00;1.00;;;;;;5075527;28;20439;-66
2022/11/28 03:52:04;;;;;;;10.60;8.13;;;6.00;1.00;;;;;;5077281;28;20484;-64
2022/11/28 03:54:37;;;;;;;8.87;8.07;;;6.00;47.60;;;;;;5068872;28;20462;-66
2022/11/28 03:57:11;;;;;;;11.33;8.20;;;6.00;94.90;;;;;;5060872;28;20462;-66
2022/11/28 03:59:43;;;;;;;10.30;8.13;;;6.00;1.00;;;;;;5062303;28;20475;-66
2022/11/28 04:02:19;;;;;;;9.63;7.80;;;6.00;1.00;;;;;;5071637;28;20777;-65
2022/11/28 04:04:53;;;;;;;10.73;8.57;;;6.00;1.00;;;;;;5041006;28;20466;-66
2022/11/28 04:07:34;;;;;;;9.97;7.30;;;6.00;1.00;;;;;;5020323;28;20458;-66
2022/11/28 04:10:09;;;;;;;10.73;7.60;;;6.00;1.00;;;;;;5021359;28;20464;-66
2022/11/28 04:12:48;;;;;;;9.47;6.67;;;6.00;1.00;;;;;;5031544;28;20513;-65
2022/11/28 04:15:19;;;;;;;8.23;7.20;;;6.00;1.00;;;;;;5040622;28;20553;-65
2022/11/28 04:17:52;;;;;;;9.13;7.53;;;6.00;1.00;;;;;;5039977;28;20466;-64
2022/11/28 04:20:27;;;;;;;10.43;8.40;;;6.00;1.00;;;;;;5033402;28;20487;-68
2022/11/28 04:23:03;;;;;;;8.93;7.30;;;6.00;1.00;;;;;;5026407;28;20465;-66
2022/11/28 04:25:35;;;;;;;8.70;7.80;;;6.00;1.00;;;;;;5030380;28;20947;-65
2022/11/28 04:28:07;;;;;;;8.90;8.00;;;5.90;1.00;;;;;;5029636;28;20559;-65
2022/11/28 04:30:37;;;;;;;12.53;7.77;;;6.00;1.00;;;;;;5027835;28;20456;-65
2022/11/28 04:33:08;;;;;;;8.93;8.00;;;6.00;1.00;;;;;;5028214;28;20524;-66
2022/11/28 04:35:39;;;;;;;10.07;8.10;;;6.00;1.00;;;;;;5029560;28;20448;-65
2022/11/28 04:38:10;;;;;;;9.37;8.37;;;6.00;1.00;;;;;;5030306;28;20499;-65
2022/11/28 04:40:43;;;;;;;9.43;7.63;;;6.00;1.00;;;;;;5024650;28;20498;-65
2022/11/28 04:43:18;;;;;;;10.70;7.03;;;6.00;1.00;;;;;;5020300;28;20486;-65
2022/11/28 04:45:50;;;;;;;9.40;7.67;;;6.00;99.90;;;;;;5031473;28;20541;-64
2022/11/28 04:48:18;;;;;;;9.33;7.27;;;6.00;99.90;;;;;;5030609;28;20897;-64
2022/11/28 04:50:52;;;;;;;9.40;7.33;;;6.00;99.90;;;;;;5020487;28;20460;-64
2022/11/28 04:53:26;;;;;;;9.83;8.00;;;6.00;99.90;;;;;;5021586;28;20855;-64
2022/11/28 04:56:01;;;;;;;11.13;7.67;;;6.00;99.90;;;;;;5040055;28;20471;-65
2022/11/28 04:58:34;;;;;;;12.87;8.00;;;6.00;99.90;;;;;;5037878;28;20473;-64
2022/11/28 05:01:04;;;;;;;10.63;7.77;;;6.00;99.90;;;;;;5039804;28;20473;-64
2022/11/28 05:03:32;;;;;;;9.43;8.10;;;6.10;99.90;;;;;;5056709;28;20470;-63
2022/11/28 05:06:03;;;;;;;10.30;8.57;;;6.10;99.90;;;;;;5079513;28;20493;-64
2022/11/28 05:08:33;;;;;;;10.17;7.67;;;6.10;99.90;;;;;;5078058;28;20458;-64
2022/11/28 05:11:03;;;;;;;10.20;8.63;;;6.10;99.90;;;;;;5079467;28;20432;-64
2022/11/28 05:13:31;;;;;;;11.00;7.60;;;6.10;99.90;;;;;;5079470;28;20471;-65
2022/11/28 05:16:02;;;;;;;9.87;8.30;;;6.10;99.90;;;;;;5062031;28;20445;-65
2022/11/28 05:18:29;;;;;;;10.80;8.30;;;6.10;99.90;;;;;;5059741;28;20469;-65
2022/11/28 05:21:00;;;;;;;9.00;8.10;;;6.10;99.90;;;;;;5059297;28;20812;-64
2022/11/28 05:23:27;;;;;;;9.93;8.10;;;6.10;99.90;;;;;;5059904;28;20481;-65
2022/11/28 05:25:57;;;;;;;10.70;8.30;;;6.10;99.90;;;;;;5074053;28;20436;-63
2022/11/28 05:28:25;;;;;;;9.30;8.30;;;6.00;96.80;;;;;;5064186;28;20510;-64
2022/11/28 05:31:00;;;;;;;10.27;8.07;;;6.10;99.90;;;;;;5058040;28;20460;-64
2022/11/28 05:33:28;;;;;;;9.07;8.17;;;6.00;93.90;;;;;;5058285;28;20904;-65
2022/11/28 05:35:56;;;;;;;9.60;7.87;;;6.10;99.90;;;;;;5065616;28;20458;-64
2022/11/28 05:38:23;;;;;;;10.67;8.67;;;6.10;91.70;;;;;;5077767;28;20836;-65
2022/11/28 05:40:50;;;;;;;11.43;8.53;;;6.10;91.10;;;;;;5076247;28;20485;-64
2022/11/28 05:43:19;;;;;;;9.50;8.00;;;6.10;85.60;;;;;;5078933;28;20497;-63
2022/11/28 05:45:46;;;;;;;10.30;8.30;;;6.10;99.90;;;;;;5075862;28;20868;-64
2022/11/28 05:48:13;;;;;;;10.33;9.13;;;6.00;99.90;;;;;;5059153;28;20441;-64
2022/11/28 05:50:41;;;;;;;10.30;7.53;;;6.10;99.90;;;;;;5068033;28;20429;-64
2022/11/28 05:53:08;;;;;;;10.07;7.90;;;6.10;99.90;;;;;;5074532;28;20470;-63
2022/11/28 05:55:38;;;;;;;9.13;8.10;;;6.10;99.90;;;;;;5088450;28;20457;-64
2022/11/28 05:58:05;;;;;;;11.03;8.77;;;6.00;99.90;;;;;;5084584;28;20465;-63
2022/11/28 06:00:36;;;;;;;9.83;8.37;;;6.00;99.90;;;;;;5082676;28;20475;-63
2022/11/28 06:03:05;;;;;;;12.17;10.63;;;6.00;99.90;;;;;;5082208;28;20786;-64
2022/11/28 06:05:32;;;;;;;15.00;10.20;;;6.00;99.90;;;;;;5082168;28;20439;-64
2022/11/28 06:08:00;;;;;;;25.60;14.43;;;6.00;99.90;;;;;;5077277;28;20465;-64
2022/11/28 06:10:28;;;;;;;20.70;11.47;;;5.90;99.90;;;;;;5077402;28;20487;-64
2022/11/28 06:12:59;;;;;;;25.40;16.63;;;6.00;99.90;;;;;;5078172;28;20488;-63
2022/11/28 06:15:26;;;;;;;14.80;10.17;;;6.00;99.90;;;;;;5078400;28;20465;-64
2022/11/28 06:17:55;;;;;;;10.87;9.77;;;5.90;99.90;;;;;;5084959;28;20504;-64
2022/11/28 06:20:22;;;;;;;11.30;8.93;;;5.90;99.90;;;;;;5085504;28;20894;-64
2022/11/28 06:22:53;;;;;;;9.87;7.70;;;6.00;99.90;;;;;;5089948;28;20452;-64
2022/11/28 06:25:23;;;;;;;9.23;8.27;;;6.00;99.90;;;;;;5084449;28;20439;-64
2022/11/28 06:27:51;;;;;;;12.60;9.93;;;5.90;99.90;;;;;;5085843;28;20428;-64
2022/11/28 06:30:22;;;;;;;9.57;7.93;;;6.00;90.50;;;;;;5064965;28;20454;-64
2022/11/28 06:32:49;;;;;;;9.40;8.37;;;6.00;75.70;;;;;;5075680;28;20449;-65
2022/11/28 06:35:18;;;;;;;13.20;8.60;;;6.00;56.10;;;;;;5076409;28;20462;-64
2022/11/28 06:37:45;;;;;;;11.60;9.70;;;6.00;1.00;;;;;;5077455;28;20457;-62
2022/11/28 06:40:16;;;;;;;10.73;8.47;;;6.00;1.00;;;;;;5076833;28;20461;-61
2022/11/28 06:42:43;;;;;;;11.13;9.67;;;6.00;1.00;;;;;;5077033;28;20463;-61
2022/11/28 06:45:14;;;;;;;11.87;9.43;;;6.00;1.00;;;;;;5077550;28;20527;-61
2022/11/28 06:47:41;;;;;;;11.43;8.60;;;6.00;1.00;;;;;;5077154;28;20461;-61
2022/11/28 06:50:10;;;;;;;12.90;9.17;;;5.90;1.00;;;;;;5061885;28;20523;-61
2022/11/28 06:52:38;;;;;;;9.00;7.73;;;5.90;1.00;;;;;;5056342;28;20808;-61
2022/11/28 06:55:06;;;;;;;9.50;8.50;;;5.90;1.00;;;;;;5057694;28;20465;-61
2022/11/28 06:57:38;;;;;;;9.93;8.57;;;5.90;1.00;;;;;;5057880;28;20540;-61
2022/11/28 07:00:06;;;;;;;10.53;8.63;;;5.90;1.00;;;;;;5067785;28;20474;-61
2022/11/28 07:02:33;;;;;;;9.70;8.60;;;5.90;4.00;;;;;;5077166;28;20848;-61
2022/11/28 07:05:01;;;;;;;10.90;8.73;;;5.90;1.00;;;;;;5075559;28;20886;-61
2022/11/28 07:07:28;;;;;;;13.80;10.60;;;6.00;1.00;;;;;;5077721;28;20556;-61
2022/11/28 07:09:57;;;;;;;12.83;8.90;;;6.00;1.00;;;;;;5071819;28;20458;-61
2022/11/28 07:12:26;;;;;;;10.10;8.83;;;5.90;1.00;;;;;;5057206;28;20459;-61
2022/11/28 07:14:53;;;;;;;10.90;8.10;;;5.90;1.00;;;;;;5057269;28;20944;-61
2022/11/28 07:17:21;;;;;;;9.60;8.27;;;5.90;1.00;;;;;;5057084;28;20516;-61
2022/11/28 07:19:50;;;;;;;10.40;8.10;;;6.00;1.00;;;;;;5056984;28;20444;-61
2022/11/28 07:22:18;;;;;;;10.83;9.40;;;6.00;1.00;;;;;;5075460;28;20545;-61
2022/11/28 07:24:48;;;;;;;11.70;8.67;;;5.90;1.00;;;;;;5076964;28;20461;-62
2022/11/28 07:27:16;;;;;;;9.07;7.90;;;5.90;1.00;;;;;;5076274;28;20461;-61
2022/11/28 07:29:44;;;;;;;10.70;8.47;;;5.90;1.00;;;;;;5077001;28;20518;-61
2022/11/28 07:32:11;;;;;;;10.80;8.77;;;6.00;1.00;;;;;;5059452;28;20441;-61
2022/11/28 07:34:40;;;;;;;12.40;8.93;;;6.00;1.00;;;;;;5057844;28;20468;-62
2022/11/28 07:37:07;;;;;;;11.70;8.80;;;6.00;1.00;;;;;;5057260;28;20471;-62
2022/11/28 07:39:35;;;;;;;10.00;8.23;;;5.90;1.00;;;;;;5057499;28;20462;-62
2022/11/28 07:42:02;;;;;;;11.63;8.53;;;6.00;1.00;;;;;;5068355;28;20492;-62
2022/11/28 07:44:32;;;;;;;12.53;8.77;;;5.90;1.00;;;;;;5061637;28;20462;-60
2022/11/28 07:46:59;;;;;;;10.10;9.00;;;6.00;1.00;;;;;;5057131;28;20437;-62
2022/11/28 07:49:26;;;;;;;11.07;8.00;;;6.00;1.00;;;;;;5057331;28;20457;-61
2022/11/28 07:51:56;;;;;;;9.77;7.40;;;6.10;1.00;;;;;;5063219;28;20518;-61
2022/11/28 07:54:23;;;;;;;10.23;8.33;;;6.10;1.00;;;;;;5076885;28;20431;-61
2022/11/28 07:56:50;;;;;;;12.00;9.00;;;6.10;1.00;;;;;;5074029;28;20440;-62
2022/11/28 07:59:17;;;;;;;9.83;8.83;;;6.10;1.00;;;;;;5076505;28;20562;-63
2022/11/28 08:01:52;;;;;;;8.90;8.00;;;6.10;1.00;;;;;;5074742;28;20493;-63
2022/11/28 08:04:21;;;;;;;9.83;8.77;;;6.10;1.00;;;;;;5056212;28;20468;-62
2022/11/28 08:06:52;;;;;;;10.03;8.90;;;6.10;1.00;;;;;;5055923;28;20463;-63
2022/11/28 08:09:19;;;;;;;10.53;8.40;;;6.10;1.00;;;;;;5056455;28;20769;-63
2022/11/28 08:11:48;;;;;;;10.30;7.73;;;6.10;1.00;;;;;;5054843;28;20425;-62
2022/11/28 08:14:15;;;;;;;9.67;8.57;;;6.10;12.70;;;;;;5072521;28;20447;-62
2022/11/28 08:16:43;;;;;;;9.83;7.97;;;6.10;65.10;;;;;;5075812;28;20468;-63
2022/11/28 08:19:15;;;;;;;10.40;8.40;;;6.10;99.90;;;;;;5076547;28;20887;-63
2022/11/28 08:21:45;;;;;;;10.37;8.70;;;6.20;99.90;;;;;;5076364;28;20490;-63
2022/11/28 08:24:16;;;;;;;10.40;8.03;;;6.20;99.90;;;;;;5061845;28;20598;-63
2022/11/28 08:26:43;;;;;;;8.00;7.20;;;6.20;99.90;;;;;;5056664;28;20432;-62
2022/11/28 08:29:10;;;;;;;12.10;9.00;;;6.30;99.90;;;;;;5057906;28;20488;-63
2022/11/28 08:31:39;;;;;;;10.27;8.63;;;6.30;99.90;;;;;;5055863;28;20842;-63
2022/11/28 08:34:09;;;;;;;12.33;8.90;;;6.30;99.90;;;;;;5066397;28;20563;-63
2022/11/28 08:36:38;;;;;;;11.90;8.60;;;6.30;99.90;;;;;;5076222;28;20509;-66
2022/11/28 08:39:06;;;;;;;8.77;7.27;;;6.30;99.90;;;;;;5075183;28;20465;-63
2022/11/28 08:41:36;;;;;;;8.63;7.73;;;6.40;99.90;;;;;;5077374;28;20766;-66
2022/11/28 08:44:04;;;;;;;10.80;8.60;;;6.40;99.90;;;;;;5079832;28;20467;-65
2022/11/28 08:46:34;;;;;;;9.10;8.17;;;6.40;99.90;;;;;;5089029;28;20740;-64
2022/11/28 08:49:03;;;;;;;11.00;8.27;;;6.40;99.90;;;;;;5086739;28;20457;-65
2022/11/28 08:51:31;;;;;;;9.43;7.97;;;6.40;99.90;;;;;;5089510;28;20427;-64
2022/11/28 08:54:00;;;;;;;11.47;8.80;;;6.40;99.90;;;;;;5087569;28;20635;-65
2022/11/28 08:56:27;;;;;;;10.10;8.10;;;6.40;99.90;;;;;;5086237;28;20428;-65
2022/11/28 08:58:55;;;;;;;9.43;8.43;;;6.40;99.90;;;;;;5088366;28;20878;-65
2022/11/28 09:01:26;;;;;;;10.77;8.40;;;6.40;99.90;;;;;;5087846;28;20456;-65
2022/11/28 09:03:56;;;;;;;9.17;8.20;;;6.50;99.90;;;;;;5087383;28;20787;-65
2022/11/28 09:06:35;;;;;;;9.73;7.90;;;6.50;99.90;;;;;;5089119;28;20522;-65
2022/11/28 09:09:09;;;;;;;11.13;8.97;;;6.50;94.30;;;;;;5089209;28;20468;-65
2022/11/28 09:11:38;;;;;;;11.93;8.70;;;6.50;99.90;;;;;;5090477;28;20891;-66
2022/11/28 09:14:05;;;;;;;11.73;8.57;;;6.50;99.90;;;;;;5089541;28;20533;-65
2022/11/28 09:16:32;;;;;;;10.60;8.60;;;6.50;99.90;;;;;;5080363;28;20470;-65
2022/11/28 09:18:59;;;;;;;10.20;8.37;;;6.50;99.90;;;;;;5083921;28;20465;-65
2022/11/28 09:21:28;;;;;;;12.40;8.77;;;6.60;99.90;;;;;;5083465;28;20877;-65
2022/11/28 09:24:01;;;;;;;10.50;8.43;;;6.60;99.90;;;;;;5088255;28;20433;-65
2022/11/28 09:26:33;;;;;;;10.20;7.90;;;6.60;99.90;;;;;;5084908;28;20543;-65
2022/11/28 09:29:01;;;;;;;10.47;8.73;;;6.60;99.90;;;;;;5082984;28;20469;-65
2022/11/28 09:31:28;;;;;;;9.37;7.70;;;6.60;99.90;;;;;;5077585;28;20476;-66
2022/11/28 09:33:58;;;;;;;13.43;9.20;;;6.60;99.90;;;;;;5079272;28;20522;-65
2022/11/28 09:36:29;;;;;;;11.33;8.80;;;6.60;99.90;;;;;;5077111;28;20469;-65
2022/11/28 09:38:59;;;;;;;11.50;8.57;;;6.60;99.90;;;;;;5078972;28;20461;-65
2022/11/28 09:42:01;;;;;;;12.40;8.77;;;6.50;99.90;;;;;;5077227;28;20785;-65
2022/11/28 09:44:36;;;;;;;9.40;7.63;;;6.60;99.90;;;;;;5073460;28;20567;-65
2022/11/28 09:47:18;;;;;;;11.70;8.10;;;6.60;99.90;;;;;;5071098;28;20903;-65
2022/11/28 09:49:52;;;;;;;10.70;8.90;;;6.60;99.90;;;;;;5058007;28;20470;-65
2022/11/28 09:52:34;;;;;;;10.73;8.50;;;6.60;99.90;;;;;;5059667;28;20458;-65
2022/11/28 09:55:12;;;;;;;11.87;8.60;;;6.70;99.90;;;;;;5058924;28;20458;-66
2022/11/28 09:57:45;;;;;;;11.30;8.97;;;6.70;99.90;;;;;;5066970;28;20461;-66
2022/11/28 10:00:20;;;;;;;10.20;8.30;;;6.60;99.90;;;;;;5077369;28;20436;-66
2022/11/28 10:03:11;;;;;;;11.17;8.40;;;6.70;99.90;;;;;;5077977;28;20569;-65
2022/11/28 10:05:44;;;;;;;10.37;9.37;;;6.60;99.90;;;;;;5079048;28;20472;-66
2022/11/28 10:08:23;;;;;;;11.90;8.27;;;6.60;99.90;;;;;;5069562;28;20484;-65
2022/11/28 10:10:57;;;;;;;10.60;9.37;;;6.70;99.90;;;;;;5064700;28;20431;-66
2022/11/28 10:13:32;;;;;;;11.70;9.00;;;6.70;99.90;;;;;;5082136;28;20449;-66
2022/11/28 10:16:04;;;;;;;10.10;8.63;;;6.70;99.90;;;;;;5098055;28;20470;-66
2022/11/28 10:18:38;;;;;;;12.70;10.93;;;6.80;99.90;;;;;;5088036;28;20447;-66
2022/11/28 10:21:24;;;;;;;10.23;8.33;;;6.80;99.90;;;;;;5078681;28;20860;-66
2022/11/28 10:23:56;;;;;;;11.60;9.53;;;6.80;99.90;;;;;;5076571;28;20492;-66
2022/11/28 10:26:34;;;;;;;12.53;9.30;;;6.90;99.90;;;;;;5078156;28;20835;-66
2022/11/28 10:29:12;;;;;;;10.73;9.07;;;6.90;99.90;;;;;;5068729;28;20480;-66
2022/11/28 10:31:43;;;;;;;15.33;9.80;;;6.90;99.90;;;;;;5071007;28;20526;-66
2022/11/28 10:34:19;;;;;;;9.70;8.63;;;6.90;99.90;;;;;;5080283;28;20450;-66
2022/11/28 10:36:54;;;;;;;12.30;9.60;;;6.90;99.90;;;;;;5077808;28;20456;-66
2022/11/28 10:39:26;;;;;;;10.50;8.90;;;7.00;99.90;;;;;;5077948;28;20469;-66
2022/11/28 10:42:13;;;;;;;11.23;9.30;;;7.00;99.90;;;;;;5068948;28;20532;-66
2022/11/28 10:45:03;;;;;;;11.23;9.00;;;7.00;99.90;;;;;;5058025;28;20805;-66
2022/11/28 10:47:53;;;;;;;13.47;9.33;;;7.00;99.90;;;;;;5076348;28;20466;-66
2022/11/28 10:50:24;;;;;;;10.80;8.27;;;7.00;1.00;;;;;;5077777;28;20917;-66
2022/11/28 10:52:59;;;;;;;10.03;8.80;;;6.90;1.00;;;;;;5063252;28;20466;-66
2022/11/28 10:55:36;;;;;;;11.83;9.53;;;7.00;1.00;;;;;;5057517;28;20520;-67
2022/11/28 10:58:15;;;;;;;13.23;9.97;;;7.00;1.00;;;;;;5076110;28;20661;-67
2022/11/28 11:00:48;;;;;;;12.53;10.03;;;7.00;1.00;;;;;;5077544;28;20465;-66
2022/11/28 11:03:24;;;;;;;13.30;10.77;;;7.00;1.00;;;;;;5063610;28;20782;-66
2022/11/28 11:05:51;;;;;;;11.73;9.90;;;7.00;48.20;;;;;;5057258;28;20466;-66
2022/11/28 11:08:22;;;;;;;12.70;8.90;;;7.00;99.90;;;;;;5058062;28;20437;-67
2022/11/28 11:10:51;;;;;;;12.53;11.33;;;7.00;99.90;;;;;;5056964;28;20560;-65
2022/11/28 11:13:21;;;;;;;14.73;9.53;;;7.10;1.00;;;;;;5066850;28;20463;-67
2022/11/28 11:15:58;;;;;;;11.63;9.03;;;7.10;1.00;;;;;;5086979;28;20761;-67
2022/11/28 11:18:27;;;;;;;11.87;9.77;;;7.10;1.00;;;;;;5083822;28;20464;-66
2022/11/28 11:21:08;;;;;;;12.67;9.77;;;7.20;99.90;;;;;;5080881;28;20534;-65
2022/11/28 11:23:38;;;;;;;15.87;10.50;;;7.10;99.90;;;;;;5063927;28;20791;-66
2022/11/28 11:26:09;;;;;;;16.17;10.10;;;7.10;99.90;;;;;;5067423;28;20748;-66
2022/11/28 11:28:44;;;;;;;11.47;9.50;;;7.10;1.00;;;;;;5065791;28;20462;-66
2022/11/28 11:31:25;;;;;;;14.77;10.57;;;7.10;99.90;;;;;;5065032;28;20465;-66
2022/11/28 11:34:03;;;;;;;15.87;10.43;;;7.20;1.00;;;;;;5065020;28;20751;-67
2022/11/28 11:36:35;;;;;;;12.47;9.90;;;7.10;1.00;;;;;;5064515;28;20436;-67
2022/11/28 11:39:22;;;;;;;14.77;10.10;;;7.20;99.90;;;;;;5065664;28;20459;-67
2022/11/28 11:41:52;;;;;;;13.40;10.37;;;7.20;99.90;;;;;;5079204;28;20492;-67
2022/11/28 11:44:28;;;;;;;15.43;10.13;;;7.30;1.00;;;;;;5084928;28;20485;-67
2022/11/28 11:47:01;;;;;;;11.13;9.20;;;7.30;99.90;;;;;;5085173;28;20449;-67
2022/11/28 11:49:31;;;;;;;12.83;10.57;;;7.40;1.00;;;;;;5083281;28;20518;-67
2022/11/28 11:52:01;;;;;;;11.97;10.60;;;7.50;99.90;;;;;;5083540;28;20464;-68
2022/11/28 11:54:31;;;;;;;10.70;9.60;;;7.40;99.90;;;;;;5084573;28;20465;-67
2022/11/28 11:56:59;;;;;;;13.63;10.00;;;7.30;99.90;;;;;;5084212;28;20465;-67
2022/11/28 11:59:31;;;;;;;17.03;10.50;;;7.30;1.00;;;;;;5085940;28;20435;-67
2022/11/28 12:02:05;;;;;;;13.20;10.30;;;7.30;1.00;;;;;;5087589;28;20428;-67
2022/11/28 12:04:39;;;;;;;12.00;10.30;;;7.30;1.00;;;;;;5083716;28;20560;-67
2022/11/28 12:07:20;;;;;;;12.43;9.63;;;7.40;1.00;;;;;;5083729;28;20453;-68
2022/11/28 12:09:49;;;;;;;11.27;9.20;;;7.20;99.90;;;;;;5083746;28;20462;-67
2022/11/28 12:12:21;;;;;;;13.70;9.50;;;7.20;99.90;;;;;;5085436;28;20473;-67
2022/11/28 12:14:49;;;;;;;13.67;9.90;;;7.20;1.00;;;;;;5089638;28;20530;-68
2022/11/28 12:17:39;;;;;;;10.67;9.50;;;7.20;99.90;;;;;;5091288;28;20463;-67
2022/11/28 12:20:32;;;;;;;10.43;8.70;;;7.20;1.00;;;;;;5067689;28;20440;-67
2022/11/28 12:23:13;;;;;;;10.40;9.33;;;7.20;1.00;;;;;;5066302;28;20486;-67
2022/11/28 12:25:49;;;;;;;10.77;9.67;;;7.20;1.00;;;;;;5060305;28;20469;-67
2022/11/28 12:28:31;;;;;;;15.87;10.93;;;7.20;1.00;;;;;;5077585;28;20428;-67
2022/11/28 12:31:11;;;;;;;14.00;10.10;;;7.20;1.00;;;;;;5069411;28;20447;-68
2022/11/28 12:33:51;;;;;;;14.10;11.20;;;7.20;10.10;;;;;;5060342;28;20811;-67
2022/11/28 12:36:26;;;;;;;13.70;11.30;;;7.20;1.00;;;;;;5061020;28;20462;-67
2022/11/28 12:39:09;;;;;;;15.90;12.47;;;7.20;99.90;;;;;;5058008;28;20436;-67
2022/11/28 12:42:04;;;;;;;21.47;15.20;;;7.30;99.90;;;;;;5062201;28;20440;-68
2022/11/28 12:45:06;;;;;;;18.40;13.63;;;7.20;99.90;;;;;;5081269;28;20809;-68
2022/11/28 12:47:46;;;;;;;15.77;13.27;;;7.20;1.00;;;;;;4997003;28;20467;-67
2022/11/28 12:50:27;;;;;;;20.23;15.53;;;7.10;99.90;;;;;;5048197;28;20498;-67
2022/11/28 12:53:08;;;;;;;12.97;10.50;;;7.20;99.90;;;;;;5076639;28;20484;-67
2022/11/28 12:55:44;;;;;;;12.03;10.77;;;7.20;1.00;;;;;;5079649;28;20457;-67
2022/11/28 12:58:19;;;;;;;11.53;9.33;;;7.20;99.90;;;;;;5060152;28;20473;-67
2022/11/28 13:00:57;;;;;;;13.33;11.50;;;7.20;1.00;;;;;;5085319;28;20537;-67
2022/11/28 13:03:39;;;;;;;11.73;10.40;;;7.20;99.90;;;;;;5086372;28;20472;-67
2022/11/28 13:06:19;;;;;;;12.33;9.80;;;7.30;1.00;;;;;;5078119;28;20472;-67
2022/11/28 13:09:00;;;;;;;12.10;10.53;;;7.30;99.90;;;;;;5059795;28;20948;-67
2022/11/28 13:11:41;;;;;;;13.33;11.63;;;7.30;1.00;;;;;;5059323;28;20879;-65
2022/11/28 13:14:23;;;;;;;10.87;9.07;;;7.40;1.00;;;;;;5071983;28;20524;-64
2022/11/28 13:16:56;;;;;;;12.47;11.20;;;7.30;1.00;;;;;;5078980;28;20471;-65
2022/11/28 13:19:42;;;;;;;10.53;9.00;;;7.30;1.00;;;;;;5081550;28;20464;-65
2022/11/28 13:22:14;;;;;;;10.23;9.13;;;7.30;99.90;;;;;;5079663;28;20782;-67